createdAt,value
2023-05-04T00:01:28.564Z,101372.66
2023-05-04T00:03:55.555Z,101369.09
2023-05-04T00:06:27.855Z,101375.34
2023-05-04T00:09:13.039Z,101376.25
2023-05-04T00:11:39.978Z,101373.56
2023-05-04T00:14:06.816Z,101360.09
2023-05-04T00:16:36.876Z,101357.41
2023-05-04T00:19:06.844Z,101352.06
2023-05-04T00:21:33.572Z,101348.50
2023-05-04T00:24:05.124Z,101354.75
2023-05-04T00:29:57.629Z,101348.50
2023-05-04T00:32:32.894Z,101342.22
2023-05-04T00:34:59.932Z,101349.41
2023-05-04T00:37:29.642Z,101343.13
2023-05-04T00:40:16.041Z,101346.69
2023-05-04T00:42:44.611Z,101340.44
2023-05-04T00:45:15.999Z,101342.22
2023-05-04T00:47:43.093Z,101334.13
2023-05-04T00:50:11.620Z,101337.72
2023-05-04T00:52:58.820Z,101330.59
2023-05-04T00:55:26.547Z,101334.16
2023-05-04T00:58:19.645Z,101328.78
2023-05-04T01:00:50.206Z,101321.63
2023-05-04T01:03:17.287Z,101327.88
2023-05-04T01:05:57.197Z,101335.06
2023-05-04T01:08:32.026Z,101332.38
2023-05-04T01:11:07.130Z,101333.25
2023-05-04T01:13:35.100Z,101335.94
2023-05-04T01:16:10.466Z,101333.25
2023-05-04T01:18:37.241Z,101326.06
2023-05-04T01:21:44.108Z,101328.78
2023-05-04T01:24:12.349Z,101330.56
2023-05-04T01:26:41.930Z,101335.06
2023-05-04T01:29:15.939Z,101339.50
2023-05-04T01:31:44.683Z,101335.94
2023-05-04T01:34:16.815Z,101343.09
2023-05-04T01:36:46.789Z,101340.41
2023-05-04T01:39:17.715Z,101330.53
2023-05-04T01:41:44.870Z,101335.91
2023-05-04T01:44:11.942Z,101341.25
2023-05-04T01:46:43.838Z,101335.88
2023-05-04T01:49:15.699Z,101336.78
2023-05-04T01:51:51.317Z,101336.75
2023-05-04T01:54:22.223Z,101327.84
2023-05-04T01:56:49.161Z,101327.81
2023-05-04T01:59:18.916Z,101333.19
2023-05-04T02:01:49.333Z,101336.75
2023-05-04T02:04:16.579Z,101338.56
2023-05-04T02:06:43.518Z,101338.53
2023-05-04T02:09:13.164Z,101336.75
2023-05-04T02:11:51.414Z,101330.47
2023-05-04T02:14:18.192Z,101334.06
2023-05-04T02:16:45.244Z,101330.47
2023-05-04T02:19:17.636Z,101340.34
2023-05-04T02:21:48.675Z,101337.66
2023-05-04T02:24:23.841Z,101334.06
2023-05-04T02:26:51.916Z,101331.34
2023-05-04T02:29:23.511Z,101337.63
2023-05-04T02:31:56.332Z,101334.03
2023-05-04T02:34:26.116Z,101322.41
2023-05-04T02:37:07.579Z,101321.47
2023-05-04T02:39:35.016Z,101322.34
2023-05-04T02:42:12.370Z,101315.19
2023-05-04T02:44:43.807Z,101327.72
2023-05-04T02:47:18.083Z,101327.72
2023-05-04T02:49:50.764Z,101319.66
2023-05-04T02:52:19.410Z,101321.44
2023-05-04T02:54:46.434Z,101321.41
2023-05-04T02:57:29.811Z,101321.44
2023-05-04T02:59:56.734Z,101321.47
2023-05-04T03:02:23.535Z,101325.97
2023-05-04T03:04:50.410Z,101323.25
2023-05-04T03:07:19.732Z,101325.06
2023-05-04T03:09:47.748Z,101323.31
2023-05-04T03:12:14.925Z,101326.88
2023-05-04T03:14:43.820Z,101325.09
2023-05-04T03:17:13.682Z,101325.06
2023-05-04T03:19:42.041Z,101332.22
2023-05-04T03:22:10.300Z,101332.22
2023-05-04T03:24:37.062Z,101325.94
2023-05-04T03:27:10.279Z,101329.53
2023-05-04T03:29:38.778Z,101331.31
2023-05-04T03:32:12.070Z,101323.22
2023-05-04T03:34:41.637Z,101323.19
2023-05-04T03:37:09.105Z,101317.81
2023-05-04T03:39:38.600Z,101316.06
2023-05-04T03:42:06.870Z,101328.53
2023-05-04T03:44:35.613Z,101324.94
2023-05-04T03:47:04.804Z,101326.72
2023-05-04T03:49:34.481Z,101319.59
2023-05-04T03:52:03.051Z,101316.91
2023-05-04T03:54:31.894Z,101320.47
2023-05-04T03:56:58.977Z,101316.91
2023-05-04T03:59:25.930Z,101323.19
2023-05-04T04:01:53.253Z,101322.28
2023-05-04T04:04:21.003Z,101326.78
2023-05-04T04:06:55.277Z,101324.13
2023-05-04T04:09:23.469Z,101323.25
2023-05-04T04:11:52.028Z,101323.28
2023-05-04T04:14:18.987Z,101326.91
2023-05-04T04:16:45.906Z,101324.19
2023-05-04T04:19:15.649Z,101334.03
2023-05-04T04:22:15.375Z,101330.47
2023-05-04T04:24:53.994Z,101329.59
2023-05-04T04:27:25.097Z,101325.13
2023-05-04T04:29:56.984Z,101322.47
2023-05-04T04:32:25.861Z,101327.84
2023-05-04T04:35:20.848Z,101322.47
2023-05-04T04:38:14.548Z,101320.69
2023-05-04T04:40:53.089Z,101321.63
2023-05-04T04:50:43.845Z,101325.19
2023-05-04T04:53:48.526Z,101324.28
2023-05-04T05:07:31.651Z,101314.31
2023-05-04T05:09:58.349Z,101311.66
2023-05-04T05:12:24.872Z,101307.13
2023-05-04T05:14:51.464Z,101308.78
2023-05-04T05:17:19.842Z,101301.06
2023-05-04T05:19:46.400Z,101298.94
2023-05-04T05:22:12.839Z,101289.34
2023-05-04T05:24:39.273Z,101284.13
2023-05-04T05:27:05.744Z,101289.00
2023-05-04T05:29:32.145Z,101290.72
2023-05-04T05:31:58.604Z,101283.03
2023-05-04T05:34:26.352Z,101281.63
2023-05-04T05:36:52.831Z,101280.59
2023-05-04T05:39:19.454Z,101286.25
2023-05-04T05:41:45.903Z,101280.13
2023-05-04T05:44:13.178Z,101282.56
2023-05-04T05:46:39.878Z,101276.81
2023-05-04T05:49:06.480Z,101290.34
2023-05-04T05:51:34.279Z,101288.28
2023-05-04T05:54:00.725Z,101286.75
2023-05-04T05:56:27.203Z,101289.25
2023-05-04T05:58:53.599Z,101280.50
2023-05-04T06:01:20.085Z,101273.66
2023-05-04T06:03:46.810Z,101274.75
2023-05-04T06:06:13.577Z,101270.22
2023-05-04T06:08:41.336Z,101271.88
2023-05-04T06:11:07.867Z,101270.13
2023-05-04T06:13:34.328Z,101255.88
2023-05-04T06:16:00.901Z,101258.53
2023-05-04T06:18:27.394Z,101261.78
2023-05-04T06:20:58.046Z,101262.78
2023-05-04T06:23:24.631Z,101247.94
2023-05-04T06:25:52.586Z,101246.53
2023-05-04T06:28:19.024Z,101252.41
2023-05-04T06:30:45.452Z,101257.63
2023-05-04T06:33:11.950Z,101254.41
2023-05-04T06:35:38.413Z,101256.63
2023-05-04T06:38:04.879Z,101249.69
2023-05-04T06:40:31.355Z,101250.06
2023-05-04T06:42:59.224Z,101258.13
2023-05-04T06:45:25.806Z,101248.47
2023-05-04T06:47:52.287Z,101251.09
2023-05-04T06:50:18.781Z,101246.91
2023-05-04T06:52:45.566Z,101251.56
2023-05-04T06:55:12.261Z,101246.72
2023-05-04T06:57:38.683Z,101244.97
2023-05-04T07:00:09.185Z,101247.06
2023-05-04T07:02:35.601Z,101241.78
2023-05-04T07:05:02.081Z,101233.38
2023-05-04T07:07:28.536Z,101230.72
2023-05-04T07:09:54.980Z,101235.41
2023-05-04T07:12:21.407Z,101231.59
2023-05-04T07:14:47.891Z,101240.38
2023-05-04T07:17:15.702Z,101237.91
2023-05-04T07:19:42.109Z,101245.22
2023-05-04T07:22:11.275Z,101238.59
2023-05-04T07:24:37.705Z,101238.66
2023-05-04T07:27:04.189Z,101248.31
2023-05-04T07:29:30.614Z,101238.88
2023-05-04T07:31:57.060Z,101233.81
2023-05-04T07:34:33.937Z,101241.28
2023-05-04T07:37:08.688Z,101242.75
2023-05-04T07:39:35.287Z,101235.91
2023-05-04T07:42:02.142Z,101235.59
2023-05-04T07:44:28.520Z,101241.09
2023-05-04T07:46:54.944Z,101230.59
2023-05-04T07:49:21.345Z,101229.31
2023-05-04T07:51:49.075Z,101231.66
2023-05-04T07:54:15.526Z,101236.69
2023-05-04T07:56:41.971Z,101233.00
2023-05-04T07:59:08.404Z,101225.25
2023-05-04T08:01:34.901Z,101229.72
2023-05-04T08:04:01.362Z,101228.53
2023-05-04T08:06:27.824Z,101223.78
2023-05-04T08:08:55.584Z,101219.00
2023-05-04T08:11:21.998Z,101223.16
2023-05-04T08:13:49.372Z,101210.66
2023-05-04T08:16:16.361Z,101219.81
2023-05-04T08:18:42.848Z,101220.84
2023-05-04T08:21:09.263Z,101225.34
2023-05-04T08:23:35.763Z,101215.16
2023-05-04T08:26:04.681Z,101217.50
2023-05-04T08:28:35.181Z,101216.94
2023-05-04T08:31:01.770Z,101215.09
2023-05-04T08:33:28.155Z,101211.19
2023-05-04T08:35:54.579Z,101215.31
2023-05-04T08:38:21.252Z,101206.63
2023-05-04T08:40:49.947Z,101209.75
2023-05-04T08:43:18.346Z,101205.53
2023-05-04T08:45:45.514Z,101203.59
2023-05-04T08:48:11.972Z,101204.84
2023-05-04T08:50:38.676Z,101198.06
2023-05-04T08:53:06.928Z,101199.50
2023-05-04T08:55:36.557Z,101196.31
2023-05-04T08:58:09.935Z,101199.09
2023-05-04T09:00:38.099Z,101204.00
2023-05-04T09:03:05.441Z,101197.28
2023-05-04T09:05:32.219Z,101193.84
2023-05-04T09:07:58.871Z,101197.19
2023-05-04T09:10:29.637Z,101195.69
2023-05-04T09:12:56.413Z,101196.06
2023-05-04T09:15:23.128Z,101185.53
2023-05-04T09:18:01.268Z,101181.56
2023-05-04T09:20:27.903Z,101173.53
2023-05-04T09:23:01.984Z,101169.50
2023-05-04T09:25:28.456Z,101174.25
2023-05-04T09:27:54.898Z,101168.78
2023-05-04T09:30:21.637Z,101174.44
2023-05-04T09:32:48.758Z,101169.00
2023-05-04T09:35:29.368Z,101174.34
2023-05-04T09:37:59.017Z,101175.19
2023-05-04T09:40:32.378Z,101170.03
2023-05-04T09:42:58.993Z,101163.03
2023-05-04T09:45:25.409Z,101164.09
2023-05-04T09:47:52.184Z,101161.16
2023-05-04T09:50:21.734Z,101162.28
2023-05-04T09:52:49.130Z,101164.69
2023-05-04T09:55:16.845Z,101152.94
2023-05-04T09:57:44.823Z,101154.84
2023-05-04T10:00:13.818Z,101157.09
2023-05-04T10:02:40.599Z,101140.00
2023-05-04T10:05:07.985Z,101138.34
2023-05-04T10:07:36.396Z,101136.94
2023-05-04T10:10:03.065Z,101137.31
2023-05-04T10:12:29.558Z,101142.00
2023-05-04T10:14:56.173Z,101134.44
2023-05-04T10:17:34.977Z,101128.25
2023-05-04T10:20:14.907Z,101121.53
2023-05-04T10:23:02.191Z,101111.31
2023-05-04T10:25:43.420Z,101115.75
2023-05-04T10:28:20.181Z,101108.84
2023-05-04T10:30:46.888Z,101103.47
2023-05-04T10:33:13.426Z,101102.31
2023-05-04T10:35:50.780Z,101103.28
2023-05-04T10:38:19.227Z,101092.34
2023-05-04T10:40:45.818Z,101094.97
2023-05-04T10:43:22.196Z,101085.00
2023-05-04T10:45:48.580Z,101079.78
2023-05-04T10:48:15.141Z,101075.13
2023-05-04T10:50:42.473Z,101068.94
2023-05-04T10:53:09.257Z,101074.28
2023-05-04T10:55:40.730Z,101064.09
2023-05-04T10:58:07.228Z,101076.22
2023-05-04T11:00:37.791Z,101070.72
2023-05-04T11:03:04.779Z,101058.00
2023-05-04T11:05:41.053Z,101057.69
2023-05-04T11:08:18.162Z,101052.03
2023-05-04T11:10:46.710Z,101059.13
2023-05-04T11:13:13.513Z,101048.25
2023-05-04T11:15:49.860Z,101039.00
2023-05-04T11:18:26.119Z,101037.16
2023-05-04T11:20:52.650Z,101040.88
2023-05-04T11:23:20.593Z,101028.75
2023-05-04T11:25:48.876Z,101033.97
2023-05-04T11:28:15.486Z,101032.53
2023-05-04T11:30:42.107Z,101023.47
2023-05-04T11:33:11.191Z,101022.78
2023-05-04T11:35:38.071Z,101021.06
2023-05-04T11:38:05.872Z,101035.19
2023-05-04T11:40:32.762Z,101024.34
2023-05-04T11:43:04.331Z,101019.72
2023-05-04T11:45:34.723Z,101014.75
2023-05-04T11:48:02.070Z,101017.41
2023-05-04T11:50:29.663Z,101015.63
2023-05-04T11:53:06.784Z,101018.75
2023-05-04T11:55:33.504Z,101011.44
2023-05-04T11:58:01.136Z,101018.63
2023-05-04T12:00:36.562Z,101011.31
2023-05-04T12:03:03.247Z,100998.53
2023-05-04T12:05:29.838Z,101000.91
2023-05-04T12:07:56.375Z,101004.13
2023-05-04T12:10:27.058Z,100999.16
2023-05-04T12:12:53.803Z,101001.81
2023-05-04T12:15:27.743Z,100995.53
2023-05-04T12:17:55.662Z,101002.72
2023-05-04T12:20:23.304Z,100995.41
2023-05-04T12:22:49.788Z,100998.97
2023-05-04T12:25:17.964Z,100994.09
2023-05-04T12:27:48.360Z,100996.31
2023-05-04T12:30:15.268Z,100987.03
2023-05-04T12:32:42.429Z,100987.91
2023-05-04T12:35:10.598Z,100983.72
2023-05-04T12:37:37.016Z,100985.72
2023-05-04T12:40:05.600Z,100988.78
2023-05-04T12:42:37.912Z,100984.13
2023-05-04T12:45:05.448Z,100974.44
2023-05-04T12:47:32.180Z,100976.19
2023-05-04T12:50:00.268Z,100983.28
2023-05-04T12:52:28.150Z,100965.84
2023-05-04T12:54:54.621Z,100965.28
2023-05-04T12:57:21.244Z,100965.81
2023-05-04T12:59:47.683Z,100959.16
2023-05-04T13:02:14.158Z,100958.69
2023-05-04T13:04:40.694Z,100951.56
2023-05-04T13:07:07.087Z,100943.81
2023-05-04T13:09:34.906Z,100946.13
2023-05-04T13:12:01.328Z,100938.44
2023-05-04T13:14:27.780Z,100937.66
2023-05-04T13:16:54.189Z,100926.50
2023-05-04T13:19:20.654Z,100922.78
2023-05-04T13:21:47.244Z,100927.59
2023-05-04T13:24:13.710Z,100927.88
2023-05-04T13:26:41.608Z,100934.47
2023-05-04T13:29:08.079Z,100923.78
2023-05-04T13:31:34.600Z,100918.13
2023-05-04T13:34:01.087Z,100918.59
2023-05-04T13:36:27.568Z,100913.75
2023-05-04T13:38:54.039Z,100911.66
2023-05-04T13:41:20.427Z,100909.44
2023-05-04T13:43:48.457Z,100899.06
2023-05-04T13:46:14.901Z,100896.97
2023-05-04T13:48:41.381Z,100905.06
2023-05-04T13:51:07.837Z,100906.53
2023-05-04T13:53:34.239Z,100905.31
2023-05-04T13:56:00.661Z,100895.78
2023-05-04T13:58:27.127Z,100897.22
2023-05-04T14:00:55.197Z,100883.91
2023-05-04T14:03:21.886Z,100885.19
2023-05-04T14:05:48.265Z,100875.78
2023-05-04T14:08:14.633Z,100870.03
2023-05-04T14:10:41.217Z,100874.88
2023-05-04T14:13:07.665Z,100872.84
2023-05-04T14:15:34.342Z,100859.19
2023-05-04T14:18:02.132Z,100865.84
2023-05-04T14:20:28.701Z,100857.84
2023-05-04T14:22:55.149Z,100860.97
2023-05-04T14:25:21.549Z,100855.19
2023-05-04T14:27:48.080Z,100851.66
2023-05-04T14:30:15.142Z,100843.69
2023-05-04T14:32:41.672Z,100834.53
2023-05-04T14:35:10.425Z,100828.69
2023-05-04T14:37:38.231Z,100828.81
2023-05-04T14:40:07.073Z,100829.84
2023-05-04T14:42:33.818Z,100828.97
2023-05-04T14:45:00.231Z,100826.66
2023-05-04T14:47:26.791Z,100827.13
2023-05-04T14:49:53.286Z,100823.88
2023-05-04T14:52:21.023Z,100822.91
2023-05-04T14:54:47.425Z,100816.19
2023-05-04T14:57:13.845Z,100817.28
2023-05-04T14:59:40.280Z,100819.09
2023-05-04T15:02:07.178Z,100816.25
2023-05-04T15:04:33.618Z,100817.22
2023-05-04T15:07:00.667Z,100805.66
2023-05-04T15:09:28.423Z,100797.28
2023-05-04T15:11:54.837Z,100801.91
2023-05-04T15:14:21.494Z,100788.69
2023-05-04T15:16:48.091Z,100794.72
2023-05-04T15:19:14.566Z,100788.69
2023-05-04T15:21:40.979Z,100788.47
2023-05-04T15:24:07.638Z,100784.59
2023-05-04T15:26:35.353Z,100787.91
2023-05-04T15:29:01.760Z,100786.00
2023-05-04T15:31:28.366Z,100777.28
2023-05-04T15:33:54.811Z,100776.31
2023-05-04T15:36:21.357Z,100763.41
2023-05-04T15:38:47.831Z,100770.78
2023-05-04T15:41:14.381Z,100772.22
2023-05-04T15:43:42.161Z,100771.44
2023-05-04T15:46:08.579Z,100773.25
2023-05-04T15:48:35.079Z,100763.78
2023-05-04T15:51:01.552Z,100771.69
2023-05-04T15:53:27.988Z,100771.78
2023-05-04T15:55:54.420Z,100778.00
2023-05-04T15:58:20.931Z,100772.38
2023-05-04T16:00:48.713Z,100774.34
2023-05-04T16:03:15.329Z,100774.00
2023-05-04T16:05:41.884Z,100773.38
2023-05-04T16:08:08.462Z,100761.84
2023-05-04T16:10:35.107Z,100764.59
2023-05-04T16:13:01.599Z,100758.25
2023-05-04T16:15:28.134Z,100758.34
2023-05-04T16:17:56.008Z,100760.78
2023-05-04T16:20:22.542Z,100756.03
2023-05-04T16:22:49.014Z,100752.31
2023-05-04T16:25:15.556Z,100756.38
2023-05-04T16:27:41.948Z,100743.00
2023-05-04T16:30:09.619Z,100737.47
2023-05-04T16:32:36.316Z,100730.78
2023-05-04T16:35:04.795Z,100716.31
2023-05-04T16:37:31.234Z,100715.09
2023-05-04T16:39:57.804Z,100715.19
2023-05-04T16:42:24.202Z,100710.56
2023-05-04T16:44:50.612Z,100707.25
2023-05-04T16:47:16.988Z,100701.41
2023-05-04T16:49:43.490Z,100702.06
2023-05-04T16:52:11.217Z,100701.47
2023-05-04T16:54:37.627Z,100696.97
2023-05-04T16:57:04.100Z,100704.69
2023-05-04T16:59:30.585Z,100702.59
2023-05-04T17:01:57.053Z,100702.84
2023-05-04T17:04:23.426Z,100703.63
2023-05-04T17:06:49.806Z,100702.44
2023-05-04T17:09:17.554Z,100696.53
2023-05-04T17:11:44.026Z,100689.84
2023-05-04T17:14:10.552Z,100696.13
2023-05-04T17:16:37.085Z,100694.16
2023-05-04T17:19:03.755Z,100697.00
2023-05-04T17:21:30.183Z,100691.03
2023-05-04T17:23:56.684Z,100688.47
2023-05-04T17:26:24.457Z,100691.41
2023-05-04T17:28:51.377Z,100691.97
2023-05-04T17:31:17.810Z,100685.19
2023-05-04T17:34:06.711Z,100683.00
2023-05-04T17:36:33.168Z,100686.22
2023-05-04T17:38:59.647Z,100695.00
2023-05-04T17:41:27.481Z,100689.06
2023-05-04T17:43:53.985Z,100693.13
2023-05-04T17:46:23.577Z,100686.47
2023-05-04T17:48:50.184Z,100697.97
2023-05-04T17:51:18.562Z,100689.13
2023-05-04T17:53:45.131Z,100684.19
2023-05-04T17:56:11.632Z,100683.03
2023-05-04T17:58:39.435Z,100678.81
2023-05-04T18:01:05.916Z,100694.19
2023-05-04T18:03:32.639Z,100693.75
2023-05-04T18:05:59.448Z,100694.28
2023-05-04T18:08:26.037Z,100694.28
2023-05-04T18:10:52.561Z,100687.31
2023-05-04T18:13:19.137Z,100690.50
2023-05-04T18:15:47.058Z,100698.44
2023-05-04T18:18:13.585Z,100697.16
2023-05-04T18:20:40.074Z,100698.53
2023-05-04T18:23:06.511Z,100701.88
2023-05-04T18:25:33.110Z,100699.38
2023-05-04T18:27:59.556Z,100701.66
2023-05-04T18:30:26.024Z,100707.75
2023-05-04T18:32:53.810Z,100716.16
2023-05-04T18:35:20.290Z,100718.47
2023-05-04T18:37:46.700Z,100710.75
2023-05-04T18:40:13.331Z,100720.16
2023-05-04T18:42:39.843Z,100722.34
2023-05-04T18:45:07.612Z,100720.03
2023-05-04T18:47:34.161Z,100724.91
2023-05-04T18:50:39.302Z,100709.47
2023-05-04T18:53:27.089Z,100728.41
2023-05-04T18:56:07.224Z,100709.56
2023-05-04T18:59:03.336Z,100728.69
2023-05-04T19:01:43.295Z,100707.59
2023-05-04T19:04:09.905Z,100726.31
2023-05-04T19:06:36.358Z,100725.72
2023-05-04T19:09:04.244Z,100718.03
2023-05-04T19:11:30.736Z,100720.84
2023-05-04T19:13:57.244Z,100723.59
2023-05-04T19:16:23.807Z,100717.47
2023-05-04T19:18:50.449Z,100728.31
2023-05-04T19:21:16.991Z,100717.59
2023-05-04T19:23:43.565Z,100726.75
2023-05-04T19:26:11.522Z,100730.72
2023-05-04T19:28:37.975Z,100728.38
2023-05-04T19:31:04.443Z,100722.16
2023-05-04T19:33:40.810Z,100725.03
2023-05-04T19:36:11.432Z,100717.13
2023-05-04T19:38:37.928Z,100733.63
2023-05-04T19:41:04.361Z,100729.25
2023-05-04T19:43:32.100Z,100733.91
2023-05-04T19:45:58.523Z,100729.41
2023-05-04T19:48:25.027Z,100737.06
2023-05-04T19:50:51.935Z,100715.78
2023-05-04T19:53:23.786Z,100725.00
2023-05-04T19:55:50.271Z,100726.09
2023-05-04T19:58:16.800Z,100729.97
2023-05-04T20:00:44.550Z,100730.13
2023-05-04T20:03:11.100Z,100732.97
2023-05-04T20:05:37.560Z,100720.31
2023-05-04T20:08:05.084Z,100727.59
2023-05-04T20:10:32.332Z,100722.28
2023-05-04T20:12:58.944Z,100719.56
2023-05-04T20:15:25.457Z,100728.59
2023-05-04T20:17:53.266Z,100721.41
2023-05-04T20:20:19.874Z,100718.88
2023-05-04T20:22:46.817Z,100718.88
2023-05-04T20:25:13.312Z,100717.31
2023-05-04T20:27:39.740Z,100711.03
2023-05-04T20:30:07.497Z,100719.22
2023-05-04T20:32:36.630Z,100720.19
2023-05-04T20:35:05.340Z,100711.31
2023-05-04T20:37:31.980Z,100720.19
2023-05-04T20:39:58.409Z,100720.44
2023-05-04T20:42:24.929Z,100724.25
2023-05-04T20:44:51.385Z,100715.38
2023-05-04T20:47:17.825Z,100714.63
2023-05-04T20:49:48.531Z,100717.34
2023-05-04T20:52:23.811Z,100715.63
2023-05-04T20:54:50.323Z,100706.81
2023-05-04T20:57:41.033Z,100702.34
2023-05-04T21:00:19.673Z,100708.03
2023-05-04T21:03:03.250Z,100676.94
2023-05-04T21:05:38.085Z,100696.69
2023-05-04T21:08:06.182Z,100681.66
2023-05-04T21:10:32.608Z,100695.25
2023-05-04T21:12:59.189Z,100683.50
2023-05-04T21:15:25.771Z,100687.25
2023-05-04T21:17:52.443Z,100675.94
2023-05-04T21:20:18.953Z,100679.44
2023-05-04T21:22:45.401Z,100681.47
2023-05-04T21:25:13.245Z,100686.19
2023-05-04T21:27:39.716Z,100684.44
2023-05-04T21:30:07.806Z,100682.69
2023-05-04T21:32:34.523Z,100687.31
2023-05-04T21:35:01.154Z,100694.41
2023-05-04T21:37:27.683Z,100688.25
2023-05-04T21:39:54.503Z,100683.28
2023-05-04T21:42:22.518Z,100668.44
2023-05-04T21:44:53.309Z,100684.50
2023-05-04T21:47:20.082Z,100696.59
2023-05-04T21:49:46.485Z,100687.72
2023-05-04T21:52:12.961Z,100685.19
2023-05-04T21:54:39.363Z,100695.22
2023-05-04T21:57:05.796Z,100691.75
2023-05-04T21:59:33.560Z,100689.03
2023-05-04T22:02:00.042Z,100685.72
2023-05-04T22:04:26.425Z,100685.78
2023-05-04T22:06:52.873Z,100687.59
2023-05-04T22:09:19.309Z,100679.69
2023-05-04T22:11:45.861Z,100677.25
2023-05-04T22:14:12.610Z,100680.97
2023-05-04T22:16:40.408Z,100683.84
2023-05-04T22:19:06.841Z,100684.81
2023-05-04T22:21:33.345Z,100684.06
2023-05-04T22:23:59.847Z,100685.13
2023-05-04T22:26:26.247Z,100685.31
2023-05-04T22:28:52.760Z,100690.94
2023-05-04T22:31:19.262Z,100683.97
2023-05-04T22:33:47.119Z,100682.31
2023-05-04T22:36:13.582Z,100661.97
2023-05-04T22:38:40.082Z,100664.84
2023-05-04T22:41:06.532Z,100672.91
2023-05-04T22:43:33.061Z,100681.88
2023-05-04T22:45:59.508Z,100680.16
2023-05-04T22:48:25.956Z,100675.00
2023-05-04T22:50:53.765Z,100677.72
2023-05-04T22:53:20.214Z,100668.84
2023-05-04T22:55:47.179Z,100668.91
2023-05-04T22:58:13.596Z,100665.53
2023-05-04T23:00:40.028Z,100665.41
2023-05-04T23:03:06.537Z,100665.56
2023-05-04T23:05:33.025Z,100669.19
2023-05-04T23:08:01.156Z,100665.84
2023-05-04T23:10:46.526Z,100656.03
2023-05-04T23:13:14.295Z,100661.66
2023-05-04T23:15:46.771Z,100662.63
2023-05-04T23:18:13.432Z,100669.81
2023-05-04T23:20:40.208Z,100661.75
2023-05-04T23:23:11.480Z,100657.50
2023-05-04T23:25:40.625Z,100670.03
2023-05-04T23:28:07.648Z,100666.59
2023-05-04T23:30:34.571Z,100666.72
2023-05-04T23:33:01.496Z,100661.38
2023-05-04T23:35:28.374Z,100671.31
2023-05-04T23:37:54.949Z,100674.94
2023-05-04T23:40:23.339Z,100671.41
2023-05-04T23:42:52.512Z,100661.72
2023-05-04T23:45:19.669Z,100667.13
2023-05-04T23:47:46.653Z,100672.59
2023-05-04T23:50:16.085Z,100664.63
2023-05-04T23:52:45.611Z,100659.28
2023-05-04T23:55:12.251Z,100662.13
2023-05-04T23:57:43.103Z,100663.94
